Time;durP1;ratioP1;P1;durP2;ratioP2;P2;SDS_P1;SDS_P2;PMS_P1;PMS_P2;Temp;Humidity;BMP_temperature;BMP_pressure;BME280_temperature;BME280_humidity;BME280_pressure;Samples;Min_cycle;Max_cycle;Signal;HPM_P1;HPM_P2
2023/10/26 00:00:28;;;;;;;11.45;8.55;;;;;;;9.15;100.00;99521.97;6142817;23;20711;-74
2023/10/26 00:02:54;;;;;;;13.73;7.88;;;;;;;9.14;100.00;99520.34;6092865;23;20018;-73
2023/10/26 00:05:20;;;;;;;11.30;8.07;;;;;;;9.14;100.00;99520.34;6118175;23;20115;-74
2023/10/26 00:07:46;;;;;;;11.30;8.57;;;;;;;9.11;100.00;99531.63;6094773;23;20380;-75
2023/10/26 00:10:12;;;;;;;11.77;8.38;;;;;;;9.10;100.00;99519.34;6118104;23;20013;-73
2023/10/26 00:12:38;;;;;;;;;;;;;;;9.10;100.00;99520.16;6104763;23;20137;-74
2023/10/26 00:15:04;;;;;;;12.80;7.88;;;;;;;9.10;100.00;99524.69;6119404;23;19988;-74
2023/10/26 00:17:30;;;;;;;14.77;8.80;;;;;;;9.05;100.00;99516.75;6095655;23;20014;-77
2023/10/26 00:19:56;;;;;;;11.60;8.75;;;;;;;9.06;100.00;99513.78;6092938;23;20017;-77
2023/10/26 00:22:22;;;;;;;12.75;8.18;;;;;;;9.02;100.00;99518.94;6119234;23;20514;-75
2023/10/26 00:24:49;;;;;;;13.80;8.02;;;;;;;9.01;100.00;99516.56;6120547;23;20013;-75
2023/10/26 00:27:15;;;;;;;13.07;9.55;;;;;;;8.99;100.00;99519.47;6142138;23;20452;-78
2023/10/26 00:29:42;;;;;;;13.98;8.93;;;;;;;8.98;100.00;99520.56;6095649;23;20041;-74
2023/10/26 00:32:09;;;;;;;12.32;8.32;;;;;;;8.96;100.00;99520.06;6117921;23;20020;-75
2023/10/26 00:34:35;;;;;;;14.23;9.05;;;;;;;8.95;100.00;99525.72;6144656;23;20081;-76
2023/10/26 00:37:02;;;;;;;14.05;8.45;;;;;;;8.94;100.00;99516.91;6093969;23;20013;-74
2023/10/26 00:39:29;;;;;;;13.60;8.75;;;;;;;8.92;100.00;99516.38;6143821;23;20009;-74
2023/10/26 00:41:55;;;;;;;14.20;8.10;;;;;;;8.91;100.00;99517.47;6118998;23;20168;-75
2023/10/26 00:44:22;;;;;;;14.80;8.52;;;;;;;8.91;100.00;99522.81;6119855;23;20044;-73
2023/10/26 00:46:49;;;;;;;12.18;8.20;;;;;;;8.89;100.00;99514.31;6094244;23;20028;-75
2023/10/26 00:49:17;;;;;;;17.30;9.70;;;;;;;8.87;100.00;99508.44;6094768;23;20562;-74
2023/10/26 00:51:46;;;;;;;14.82;7.97;;;;;;;8.87;100.00;99519.13;6094366;23;20025;-73
2023/10/26 00:54:12;;;;;;;12.77;8.98;;;;;;;8.87;100.00;99511.09;6143131;23;20045;-74
2023/10/26 00:56:38;;;;;;;13.90;9.27;;;;;;;8.84;100.00;99514.38;6142946;23;20088;-73
2023/10/26 00:59:04;;;;;;;13.50;8.88;;;;;;;8.85;100.00;99518.63;6144167;23;20025;-73
2023/10/26 01:01:30;;;;;;;;;;;;;;;8.83;100.00;99523.47;6144749;23;20037;-73
2023/10/26 01:03:56;;;;;;;18.10;8.52;;;;;;;8.81;100.00;99511.50;6096012;23;19913;-74
2023/10/26 01:06:23;;;;;;;10.68;8.07;;;;;;;8.81;100.00;99511.50;6118204;23;20055;-73
2023/10/26 01:08:49;;;;;;;16.27;8.63;;;;;;;8.78;100.00;99518.19;6095574;23;20017;-76
2023/10/26 01:11:15;;;;;;;14.80;9.60;;;;;;;8.79;100.00;99516.31;6119069;23;20092;-78
2023/10/26 01:13:41;;;;;;;14.27;9.05;;;;;;;8.78;100.00;99512.84;6094732;23;20025;-78
2023/10/26 01:16:07;;;;;;;14.85;8.98;;;;;;;8.77;100.00;99511.25;6142139;23;20024;-77
2023/10/26 01:18:33;;;;;;;15.02;8.50;;;;;;;8.75;100.00;99516.09;6120294;23;20036;-75
2023/10/26 01:21:00;;;;;;;13.55;9.50;;;;;;;8.74;100.00;99512.63;6101014;23;20127;-72
2023/10/26 01:23:26;;;;;;;15.60;9.95;;;;;;;8.72;100.00;99512.09;6036016;23;20026;-72
2023/10/26 01:25:54;;;;;;;15.13;9.15;;;;;;;8.72;100.00;99512.09;6059912;23;20051;-75
2023/10/26 01:28:20;;;;;;;13.55;8.98;;;;;;;8.70;100.00;99511.59;6060592;23;20018;-72
2023/10/26 01:30:46;;;;;;;12.02;8.05;;;;;;;8.71;100.00;99507.06;6013521;23;20014;-74
2023/10/26 01:33:11;;;;;;;13.73;8.77;;;;;;;8.72;100.00;99513.97;6061170;23;20469;-73
2023/10/26 01:35:40;;;;;;;19.17;9.45;;;;;;;8.71;100.00;99510.53;6036607;23;20154;-73
2023/10/26 01:38:06;;;;;;;14.52;9.30;;;;;;;8.71;100.00;99513.19;6087638;23;20018;-73
2023/10/26 01:40:32;;;;;;;15.63;10.38;;;;;;;8.71;100.00;99507.06;6038424;23;20041;-73
2023/10/26 01:42:57;;;;;;;;;;;;;;;8.67;100.00;99501.53;6039525;23;20014;-73
2023/10/26 01:45:23;;;;;;;13.73;8.88;;;;;;;8.70;100.00;99516.16;6085944;23;20340;-73
2023/10/26 01:47:49;;;;;;;16.30;10.27;;;;;;;8.71;100.00;99512.41;6064460;23;20021;-73
2023/10/26 01:50:15;;;;;;;15.80;10.50;;;;;;;8.70;100.00;99505.47;6062348;23;20135;-75
2023/10/26 01:52:41;;;;;;;16.95;10.77;;;;;;;8.71;100.00;99512.41;6062236;23;20010;-74
2023/10/26 01:55:07;;;;;;;17.00;11.32;;;;;;;8.68;100.00;99502.31;6087739;23;20061;-72
2023/10/26 01:57:32;;;;;;;17.25;10.43;;;;;;;8.69;100.00;99507.34;6038762;23;20793;-72
2023/10/26 01:59:59;;;;;;;15.20;10.15;;;;;;;8.68;100.00;99507.66;6063665;23;20053;-75
2023/10/26 02:02:25;;;;;;;16.95;10.18;;;;;;;8.69;100.00;99506.56;6060757;23;20010;-73
2023/10/26 02:04:50;;;;;;;16.38;10.98;;;;;;;8.70;100.00;99502.81;6088634;23;20025;-74
2023/10/26 02:07:16;;;;;;;16.73;11.20;;;;;;;8.72;100.00;99497.97;6060686;23;20044;-73
2023/10/26 02:09:42;;;;;;;16.38;10.90;;;;;;;8.71;100.00;99491.84;6014894;23;20084;-72
2023/10/26 02:12:08;;;;;;;17.05;9.73;;;;;;;8.70;100.00;99500.94;6060971;23;20345;-72
2023/10/26 02:14:33;;;;;;;15.25;9.98;;;;;;;8.70;100.00;99490.25;6038970;23;20113;-73
2023/10/26 02:16:59;;;;;;;17.10;11.15;;;;;;;8.72;100.00;99498.75;6037923;23;20096;-73
2023/10/26 02:19:24;;;;;;;15.38;10.82;;;;;;;8.69;100.00;99495.88;6062314;23;20014;-73
2023/10/26 02:21:50;;;;;;;19.90;10.52;;;;;;;8.69;100.00;99499.34;6032364;23;20018;-73
2023/10/26 02:24:16;;;;;;;17.30;11.82;;;;;;;8.71;100.00;99512.41;6057107;23;20026;-73
2023/10/26 02:26:41;;;;;;;16.42;11.15;;;;;;;8.71;100.00;99501.72;6057589;23;20022;-74
2023/10/26 02:29:07;;;;;;;16.13;10.85;;;;;;;8.70;100.00;99494.81;6033271;23;20453;-73
2023/10/26 02:31:33;;;;;;;15.05;9.75;;;;;;;8.71;100.00;99502.50;6059638;23;20062;-73
2023/10/26 02:33:59;;;;;;;16.08;10.65;;;;;;;8.70;100.00;99500.13;6057756;23;20054;-74
2023/10/26 02:36:25;;;;;;;17.55;11.07;;;;;;;8.69;100.00;99506.56;6054879;23;20018;-72
2023/10/26 02:38:50;;;;;;;17.77;11.32;;;;;;;8.70;100.00;99505.47;6057260;23;20102;-73
2023/10/26 02:41:16;;;;;;;17.30;11.52;;;;;;;8.71;100.00;99507.06;6057493;23;20106;-73
2023/10/26 02:43:42;;;;;;;17.95;11.18;;;;;;;8.71;100.00;99507.06;6033884;23;20413;-74
2023/10/26 02:46:09;;;;;;;19.63;12.48;;;;;;;8.70;100.00;99505.47;6008271;23;20465;-72
2023/10/26 02:48:34;;;;;;;14.93;10.73;;;;;;;8.72;100.00;99508.66;6056917;23;20142;-73
2023/10/26 02:51:00;;;;;;;18.00;11.63;;;;;;;8.73;100.00;99502.22;6032699;23;20046;-75
2023/10/26 02:53:26;;;;;;;18.35;12.02;;;;;;;8.70;100.00;99500.13;6057261;23;20117;-74
2023/10/26 02:55:52;;;;;;;19.05;11.80;;;;;;;8.71;100.00;99502.50;6056473;23;20023;-73
2023/10/26 02:58:18;;;;;;;21.30;11.90;;;;;;;8.70;100.00;99500.13;6056656;23;20484;-74
2023/10/26 03:00:44;;;;;;;19.27;12.25;;;;;;;8.71;100.00;99507.06;6056521;23;20074;-72
2023/10/26 03:03:09;;;;;;;18.58;11.52;;;;;;;8.69;100.00;99498.56;6056800;23;20349;-72
2023/10/26 03:05:37;;;;;;;17.05;11.13;;;;;;;8.71;100.00;99507.84;6056468;23;20011;-73
2023/10/26 03:08:04;;;;;;;17.85;11.40;;;;;;;8.70;100.00;99503.59;6058647;23;20065;-72
2023/10/26 03:10:30;;;;;;;19.40;12.60;;;;;;;8.71;100.00;99501.72;6057434;23;20752;-73
2023/10/26 03:12:55;;;;;;;19.70;12.15;;;;;;;8.69;100.00;99498.56;6032843;23;20477;-73
2023/10/26 03:15:21;;;;;;;15.38;11.48;;;;;;;8.68;100.00;99496.97;6054294;23;20026;-74
2023/10/26 03:17:47;;;;;;;19.63;12.35;;;;;;;8.68;100.00;99496.97;6033209;23;20019;-73
2023/10/26 03:20:13;;;;;;;19.33;12.13;;;;;;;8.69;100.00;99503.91;6008387;23;20869;-74
2023/10/26 03:22:38;;;;;;;18.90;11.82;;;;;;;8.67;100.00;99501.53;6056051;23;20022;-73
2023/10/26 03:25:06;;;;;;;17.88;11.38;;;;;;;8.69;100.00;99502.00;6056448;23;20015;-72
2023/10/26 03:27:33;;;;;;;19.98;12.70;;;;;;;8.68;100.00;99507.66;6056645;23;20019;-73
2023/10/26 03:29:59;;;;;;;18.50;11.98;;;;;;;8.69;100.00;99512.69;6032901;23;20045;-73
2023/10/26 03:32:25;;;;;;;16.75;12.00;;;;;;;8.71;100.00;99512.41;6055206;23;20015;-72
2023/10/26 03:34:52;;;;;;;17.17;11.55;;;;;;;8.71;100.00;99515.88;6032601;23;20097;-74
2023/10/26 03:37:17;;;;;;;19.13;11.73;;;;;;;8.72;100.00;99511.31;6054812;23;20400;-72
2023/10/26 03:39:44;;;;;;;17.13;12.27;;;;;;;8.71;100.00;99513.19;6033162;23;20015;-72
2023/10/26 03:42:09;;;;;;;18.25;12.27;;;;;;;8.72;100.00;99519.31;6030650;23;20027;-73
2023/10/26 03:44:35;;;;;;;17.95;12.13;;;;;;;8.71;100.00;99523.06;6057419;23;20022;-74
2023/10/26 03:47:01;;;;;;;17.40;10.70;;;;;;;8.72;100.00;99519.31;6057056;23;20090;-73
2023/10/26 03:49:27;;;;;;;18.00;11.50;;;;;;;8.73;100.00;99518.22;6056571;23;20019;-73
2023/10/26 03:51:52;;;;;;;18.38;12.45;;;;;;;8.71;100.00;99515.88;6056583;23;20098;-73
2023/10/26 03:54:22;;;;;;;18.45;12.65;;;;;;;8.70;100.00;99519.63;6059002;23;20043;-73
2023/10/26 03:56:48;;;;;;;19.98;12.68;;;;;;;8.69;100.00;99517.25;6056989;23;20075;-73
2023/10/26 03:59:13;;;;;;;19.67;13.45;;;;;;;8.70;100.00;99521.50;6059079;23;20015;-72
2023/10/26 04:01:40;;;;;;;19.35;12.82;;;;;;;8.70;100.00;99516.94;6033098;23;20089;-73
2023/10/26 04:04:06;;;;;;;20.10;12.82;;;;;;;8.70;100.00;99521.50;6059369;23;20470;-74
2023/10/26 04:06:31;;;;;;;20.70;12.10;;;;;;;8.72;100.00;99524.66;6032263;23;20029;-73
2023/10/26 04:08:57;;;;;;;19.52;12.98;;;;;;;8.73;100.00;99536.91;6031118;23;20097;-75
2023/10/26 04:11:24;;;;;;;21.08;12.95;;;;;;;8.71;100.00;99531.88;6032278;23;20014;-73
2023/10/26 04:13:50;;;;;;;20.60;12.80;;;;;;;8.70;100.00;99538.31;6033275;23;20061;-72
2023/10/26 04:16:17;;;;;;;18.35;12.45;;;;;;;8.68;100.00;99526.34;6056072;23;20074;-76
2023/10/26 04:18:42;;;;;;;23.23;13.85;;;;;;;8.68;100.00;99537.00;6033476;23;20734;-73
2023/10/26 04:21:08;;;;;;;20.30;12.02;;;;;;;8.68;100.00;99539.69;6056191;23;20019;-74
2023/10/26 04:23:34;;;;;;;17.08;11.18;;;;;;;8.66;100.00;99531.94;6057831;23;20015;-74
2023/10/26 04:25:59;;;;;;;20.85;12.15;;;;;;;8.66;100.00;99529.25;6056519;23;20015;-74
2023/10/26 04:28:25;;;;;;;23.40;14.55;;;;;;;8.63;100.00;99531.72;6055672;23;20078;-74
2023/10/26 04:30:53;;;;;;;22.42;13.63;;;;;;;8.62;100.00;99532.81;6033105;23;20014;-73
2023/10/26 04:33:18;;;;;;;22.48;13.25;;;;;;;8.61;100.00;99531.22;6056177;23;20461;-73
2023/10/26 04:35:45;;;;;;;33.00;15.10;;;;;;;8.59;100.00;99525.34;6056337;23;20074;-73
2023/10/26 04:38:11;;;;;;;24.33;14.68;;;;;;;8.60;100.00;99524.28;6057088;23;20019;-72
2023/10/26 04:40:41;;;;;;;24.48;13.50;;;;;;;8.61;100.00;99525.88;6057427;23;20019;-73
2023/10/26 04:43:08;;;;;;;24.40;13.95;;;;;;;8.60;100.00;99526.94;6056516;23;20019;-72
2023/10/26 04:45:34;;;;;;;20.08;12.52;;;;;;;8.62;100.00;99524.81;6056223;23;20010;-72
2023/10/26 04:48:00;;;;;;;23.98;13.55;;;;;;;8.59;100.00;99526.16;6033592;23;20069;-74
2023/10/26 04:50:27;;;;;;;25.20;15.18;;;;;;;8.58;100.00;99523.78;6056812;23;20010;-75
2023/10/26 04:52:53;;;;;;;25.20;15.02;;;;;;;8.58;100.00;99537.13;6056207;23;20019;-73
2023/10/26 04:55:19;;;;;;;28.25;15.63;;;;;;;8.56;100.00;99526.72;6031958;23;20019;-74
2023/10/26 04:57:45;;;;;;;24.30;15.02;;;;;;;8.55;100.00;99533.16;6058586;23;20078;-73
2023/10/26 05:00:11;;;;;;;26.00;14.80;;;;;;;8.58;100.00;99529.09;6057274;23;20026;-74
2023/10/26 05:02:38;;;;;;;24.48;15.85;;;;;;;8.56;100.00;99528.59;6009088;23;20022;-74
2023/10/26 05:05:04;;;;;;;;;;;;;;;8.56;100.00;99525.94;6033061;23;20029;-73
2023/10/26 05:07:30;;;;;;;24.95;14.38;;;;;;;8.57;100.00;99535.53;6055176;23;19936;-72
2023/10/26 05:09:56;;;;;;;26.52;14.40;;;;;;;8.55;100.00;99533.16;6008948;23;20634;-72
2023/10/26 05:12:22;;;;;;;26.23;15.70;;;;;;;8.53;100.00;99529.97;6056729;23;20666;-72
2023/10/26 05:14:47;;;;;;;29.13;15.35;;;;;;;8.54;100.00;99531.56;6035636;23;20018;-72
2023/10/26 05:17:13;;;;;;;31.63;16.42;;;;;;;8.54;100.00;99528.09;6034130;23;20399;-73
2023/10/26 05:19:39;;;;;;;29.15;14.95;;;;;;;8.55;100.00;99537.69;6059123;23;20037;-74
2023/10/26 05:22:05;;;;;;;29.65;15.15;;;;;;;8.54;100.00;99536.13;6033663;23;20446;-73
2023/10/26 05:24:31;;;;;;;29.80;16.52;;;;;;;8.54;100.00;99542.25;6060004;23;20014;-73
2023/10/26 05:26:57;;;;;;;30.05;17.48;;;;;;;8.53;100.00;99526.50;6057930;23;20545;-73
2023/10/26 05:29:22;;;;;;;30.30;17.23;;;;;;;8.54;100.00;99528.09;6034265;23;20019;-74
2023/10/26 05:31:48;;;;;;;27.60;14.70;;;;;;;8.55;100.00;99529.69;6032975;23;20037;-72
2023/10/26 05:34:15;;;;;;;32.22;15.85;;;;;;;8.56;100.00;99525.94;6058823;23;20372;-73
2023/10/26 05:36:41;;;;;;;27.10;15.15;;;;;;;8.57;100.00;99535.53;6033761;23;20099;-73
2023/10/26 05:39:07;;;;;;;25.85;14.35;;;;;;;8.57;100.00;99536.31;6060600;23;20046;-72
2023/10/26 05:41:34;;;;;;;29.63;15.80;;;;;;;8.56;100.00;99526.72;6059044;23;20077;-74
2023/10/26 05:43:59;;;;;;;31.45;15.35;;;;;;;8.57;100.00;99539.00;5987638;23;20030;-74
2023/10/26 05:46:25;;;;;;;30.17;14.65;;;;;;;8.57;100.00;99528.31;6032336;23;20023;-73
2023/10/26 05:48:51;;;;;;;28.67;14.88;;;;;;;8.58;100.00;99539.78;6034904;23;20142;-73
2023/10/26 05:51:17;;;;;;;29.52;15.02;;;;;;;8.57;100.00;99532.88;6057185;23;20017;-73
2023/10/26 05:53:42;;;;;;;32.60;15.50;;;;;;;8.57;100.00;99538.19;6035008;23;20023;-73
2023/10/26 05:56:08;;;;;;;33.53;15.73;;;;;;;8.58;100.00;99539.78;6032844;23;20017;-72
2023/10/26 05:58:35;;;;;;;33.65;16.45;;;;;;;8.57;100.00;99536.31;6033068;23;20054;-73
2023/10/26 06:01:02;;;;;;;33.42;16.38;;;;;;;8.56;100.00;99537.41;6057601;23;20041;-73
2023/10/26 06:03:28;;;;;;;;;;;;;;;8.56;100.00;99532.06;6060583;23;20053;-72
2023/10/26 06:05:59;;;;;;;28.13;13.95;;;;;;;8.56;100.00;99539.28;6058173;23;19920;-73
2023/10/26 06:08:25;;;;;;;28.95;15.15;;;;;;;8.58;100.00;99542.44;6034341;23;20030;-72
2023/10/26 06:10:51;;;;;;;29.58;14.95;;;;;;;8.57;100.00;99538.19;6034039;23;20037;-72
2023/10/26 06:13:18;;;;;;;35.90;15.85;;;;;;;8.58;100.00;99534.44;6057978;23;20015;-74
2023/10/26 06:15:43;;;;;;;31.58;14.50;;;;;;;8.58;100.00;99539.78;6057418;23;20025;-73
2023/10/26 06:18:09;;;;;;;31.13;14.70;;;;;;;8.59;100.00;99541.38;6059220;23;20011;-72
2023/10/26 06:20:36;;;;;;;38.90;17.65;;;;;;;8.58;100.00;99540.56;6033045;23;20026;-72
2023/10/26 06:23:02;;;;;;;32.45;14.80;;;;;;;8.59;100.00;99530.69;6038111;23;20025;-74
2023/10/26 06:25:28;;;;;;;33.40;15.70;;;;;;;8.60;100.00;99541.09;6037229;23;20022;-72
2023/10/26 06:27:55;;;;;;;31.92;15.82;;;;;;;8.61;100.00;99542.69;6014822;23;20018;-71
2023/10/26 06:30:23;;;;;;;32.30;15.30;;;;;;;8.62;100.00;99538.16;6038154;23;20552;-72
2023/10/26 06:32:52;;;;;;;36.47;16.30;;;;;;;8.61;100.00;99536.56;6063404;23;20014;-73
2023/10/26 06:35:18;;;;;;;34.17;17.02;;;;;;;8.63;100.00;99543.19;6087276;23;20014;-74
2023/10/26 06:37:44;;;;;;;31.05;15.05;;;;;;;8.64;100.00;99536.78;6039116;23;20452;-73
2023/10/26 06:40:10;;;;;;;27.00;14.68;;;;;;;8.67;100.00;99544.22;6062940;23;20010;-73
2023/10/26 06:42:36;;;;;;;33.30;16.33;;;;;;;8.69;100.00;99546.59;6061351;23;20018;-74
2023/10/26 06:45:03;;;;;;;;;;;;;;;8.71;100.00;99544.44;6063249;23;20025;-74
2023/10/26 06:47:29;;;;;;;31.75;14.95;;;;;;;8.71;100.00;99550.56;6037972;23;19913;-72
2023/10/26 06:49:55;;;;;;;31.48;14.60;;;;;;;8.71;100.00;99555.91;6039272;23;20015;-72
2023/10/26 06:52:21;;;;;;;27.05;13.32;;;;;;;8.73;100.00;99558.28;6061457;23;20181;-72
2023/10/26 06:54:48;;;;;;;28.45;13.73;;;;;;;8.74;100.00;99562.56;6039241;23;20029;-72
2023/10/26 06:57:14;;;;;;;26.08;13.35;;;;;;;8.76;100.00;99565.72;6061780;23;20488;-75
2023/10/26 06:59:41;;;;;;;;;;;;;;;8.77;100.00;99559.31;6037536;23;20504;-74
2023/10/26 07:02:07;;;;;;;27.00;12.00;;;;;;;8.78;100.00;99563.56;6061302;23;19923;-73
2023/10/26 07:04:34;;;;;;;;;;;;;;;8.78;100.00;99566.22;6039361;23;20033;-73
2023/10/26 07:07:00;;;;;;;27.80;13.13;;;;;;;8.79;100.00;99562.47;6085452;23;19960;-73
2023/10/26 07:09:25;;;;;;;24.83;13.02;;;;;;;8.82;100.00;99563.78;6087015;23;20021;-73
2023/10/26 07:11:51;;;;;;;26.95;11.57;;;;;;;8.84;100.00;99564.28;6038727;23;20108;-72
2023/10/26 07:14:17;;;;;;;26.90;13.55;;;;;;;8.84;100.00;99570.44;6087305;23;20010;-71
2023/10/26 07:16:43;;;;;;;24.95;11.80;;;;;;;8.86;100.00;99573.59;6036828;23;20025;-73
2023/10/26 07:19:08;;;;;;;28.17;13.80;;;;;;;8.87;100.00;99564.50;6039179;23;20017;-73
2023/10/26 07:21:36;;;;;;;28.70;13.93;;;;;;;8.89;100.00;99565.03;6060703;23;20026;-73
2023/10/26 07:24:02;;;;;;;31.48;12.98;;;;;;;8.92;100.00;99564.44;6062626;23;20018;-71
2023/10/26 07:26:28;;;;;;;27.00;12.55;;;;;;;8.93;100.00;99571.38;6061793;23;20041;-74
2023/10/26 07:28:56;;;;;;;;;;;;;;;8.95;100.00;99571.91;6088748;23;20018;-73
2023/10/26 07:31:23;;;;;;;23.80;12.23;;;;;;;8.96;100.00;99570.81;6060840;23;19936;-73
2023/10/26 07:33:48;;;;;;;27.15;12.57;;;;;;;9.00;100.00;99571.81;6014833;23;20045;-73
2023/10/26 07:36:14;;;;;;;;;;;;;;;9.02;100.00;99575.00;6061931;23;20021;-74
2023/10/26 07:38:41;;;;;;;27.92;12.63;;;;;;;9.04;100.00;99582.72;6061351;23;19913;-72
2023/10/26 07:41:08;;;;;;;27.05;13.43;;;;;;;9.07;100.00;99584.81;6037834;23;20034;-73
2023/10/26 07:43:37;;;;;;;28.17;13.93;;;;;;;9.10;100.00;99570.09;6062261;23;20018;-73
2023/10/26 07:46:03;;;;;;;28.00;13.73;;;;;;;9.12;100.00;99570.59;6061304;23;20022;-73
2023/10/26 07:48:30;;;;;;;30.33;13.93;;;;;;;9.16;100.00;99569.75;6061487;23;20044;-72
2023/10/26 07:50:56;;;;;;;28.30;13.55;;;;;;;9.18;100.00;99564.09;6086770;23;20085;-73
2023/10/26 07:53:23;;;;;;;25.80;12.30;;;;;;;9.22;100.00;99570.47;6087284;23;20048;-71
2023/10/26 07:55:50;;;;;;;26.52;12.57;;;;;;;9.26;100.00;99566.13;6062384;23;20021;-74
2023/10/26 07:58:16;;;;;;;28.40;13.73;;;;;;;9.29;100.00;99576.25;6038345;23;20540;-72
2023/10/26 08:00:41;;;;;;;23.85;13.88;;;;;;;9.32;100.00;99583.66;6036615;23;20030;-73
2023/10/26 08:03:27;;;;;;;26.02;12.38;;;;;;;9.40;100.00;99584.91;6087412;23;20463;-73
2023/10/26 08:06:11;;;;;;;27.27;12.02;;;;;;;9.41;100.00;99592.63;6050885;23;20096;-76
2023/10/26 08:08:58;;;;;;;23.80;12.43;;;;;;;9.47;100.00;99588.78;6080724;23;20068;-76
2023/10/26 08:11:24;;;;;;;23.70;11.38;;;;;;;9.51;100.00;99595.16;6097404;23;20642;-74
2023/10/26 08:13:50;;;;;;;;;;;;;;;9.54;100.00;99594.56;6098268;23;20014;-74
2023/10/26 08:16:16;;;;;;;25.17;11.30;;;;;;;9.55;100.00;99585.47;6072018;23;19915;-75
2023/10/26 08:18:42;;;;;;;21.02;11.52;;;;;;;9.57;100.00;99583.31;6096996;23;20014;-73
2023/10/26 08:21:08;;;;;;;23.35;11.90;;;;;;;9.60;100.00;99583.81;6072867;23;20018;-73
2023/10/26 08:23:35;;;;;;;25.50;12.45;;;;;;;9.66;100.00;99580.75;6049226;23;20014;-74
2023/10/26 08:26:08;;;;;;;23.90;12.00;;;;;;;9.70;100.00;99592.47;6096862;23;20706;-74
2023/10/26 08:28:35;;;;;;;20.88;11.82;;;;;;;9.77;100.00;99594.78;6072169;23;20018;-74
2023/10/26 08:31:01;;;;;;;25.98;13.10;;;;;;;9.81;100.00;99593.09;6096580;23;20010;-75
2023/10/26 08:33:31;;;;;;;20.30;11.25;;;;;;;9.81;100.00;99601.09;6071067;23;20343;-75
2023/10/26 08:35:57;;;;;;;21.80;10.95;;;;;;;9.85;100.00;99599.44;6072617;23;20014;-74
2023/10/26 08:38:23;;;;;;;19.20;10.80;;;;;;;9.88;100.00;99598.84;6073020;23;20096;-75
2023/10/26 08:40:53;;;;;;;18.50;10.23;;;;;;;9.92;100.00;99601.75;6072229;23;20349;-74
2023/10/26 08:43:20;;;;;;;18.00;10.52;;;;;;;9.95;100.00;99593.91;6071063;23;20034;-74
2023/10/26 08:45:47;;;;;;;17.05;10.25;;;;;;;9.96;100.00;99595.53;6071605;23;20013;-74
2023/10/26 08:48:18;;;;;;;15.32;9.40;;;;;;;10.04;100.00;99596.75;6098236;23;20049;-74
2023/10/26 08:50:48;;;;;;;18.83;10.70;;;;;;;10.07;100.00;99596.13;6046161;23;20022;-77
2023/10/26 08:53:15;;;;;;;15.88;9.70;;;;;;;10.07;100.00;99607.63;6073258;23;20016;-76
2023/10/26 08:55:42;;;;;;;18.55;9.70;;;;;;;10.10;100.00;99607.06;6097587;23;20069;-74
2023/10/26 08:58:08;;;;;;;16.38;9.23;;;;;;;10.12;100.00;99610.22;6071947;23;20018;-75
2023/10/26 09:00:41;;;;;;;;;;;;;;;10.11;100.00;99607.84;6072824;23;20035;-72
2023/10/26 09:03:09;;;;;;;11.95;7.47;;;;;;;10.12;100.00;99599.53;6097418;23;19915;-78
2023/10/26 09:05:55;;;;;;;14.50;7.78;;;;;;;10.13;100.00;99594.97;6073253;23;20014;-74
2023/10/26 09:08:23;;;;;;;14.00;8.70;;;;;;;10.16;100.00;99590.91;6125700;23;20073;-73
2023/10/26 09:10:51;;;;;;;10.63;6.95;;;;;;;10.20;100.00;99594.59;6101669;23;20045;-76
2023/10/26 09:13:28;;;;;;;11.90;7.38;;;;;;;10.18;100.00;99592.22;6103194;23;20009;-75
2023/10/26 09:15:57;;;;;;;13.45;7.75;;;;;;;10.15;100.00;99586.63;6093851;23;20017;-75
2023/10/26 09:18:24;;;;;;;12.85;7.85;;;;;;;10.15;100.00;99592.00;6102863;23;20328;-73
2023/10/26 09:21:05;;;;;;;12.68;7.82;;;;;;;10.18;100.00;99594.09;6100430;23;20017;-73
2023/10/26 09:23:32;;;;;;;12.27;7.45;;;;;;;10.19;100.00;99599.13;6077822;23;20018;-77
2023/10/26 09:26:00;;;;;;;10.68;7.35;;;;;;;10.20;100.00;99594.59;6101996;23;20017;-74
2023/10/26 09:28:26;;;;;;;12.30;8.50;;;;;;;10.26;100.00;99588.09;6152342;23;20021;-73
2023/10/26 09:31:02;;;;;;;12.35;7.97;;;;;;;10.24;100.00;99598.31;6100759;23;20116;-73
2023/10/26 09:33:28;;;;;;;12.73;7.45;;;;;;;10.24;100.00;99603.66;6152191;23;20020;-73
2023/10/26 09:35:54;;;;;;;13.95;7.03;;;;;;;10.22;100.00;99597.75;6100675;23;20025;-75
2023/10/26 09:38:37;;;;;;;11.35;7.53;;;;;;;10.20;100.00;99594.59;6125931;23;20017;-73
2023/10/26 09:41:06;;;;;;;13.65;7.03;;;;;;;10.22;100.00;99592.41;6077858;23;20052;-74
2023/10/26 09:43:32;;;;;;;12.63;8.05;;;;;;;10.22;100.00;99592.41;6126223;23;20013;-76
2023/10/26 09:45:58;;;;;;;11.35;8.10;;;;;;;10.23;100.00;99596.69;6101486;23;20096;-73
2023/10/26 09:48:25;;;;;;;11.68;7.47;;;;;;;10.23;100.00;99586.81;6126518;23;20347;-75
2023/10/26 09:50:52;;;;;;;11.60;8.00;;;;;;;10.27;100.00;99587.78;6076968;23;20436;-74
2023/10/26 09:53:22;;;;;;;11.52;6.35;;;;;;;10.28;100.00;99585.91;6126692;23;20049;-76
2023/10/26 09:55:49;;;;;;;9.40;6.60;;;;;;;10.27;100.00;99589.66;6076566;23;20009;-77
2023/10/26 09:58:17;;;;;;;8.98;5.90;;;;;;;10.22;100.00;99590.50;6078559;23;20009;-74
2023/10/26 10:00:42;;;;;;;8.52;5.30;;;;;;;10.24;100.00;99582.25;6077091;23;20040;-75
2023/10/26 10:03:15;;;;;;;7.43;5.43;;;;;;;10.24;100.00;99583.03;6078517;23;20468;-76
2023/10/26 10:05:43;;;;;;;8.73;5.10;;;;;;;10.27;100.00;99578.97;6102335;23;20024;-74
2023/10/26 10:08:10;;;;;;;7.85;4.60;;;;;;;10.27;100.00;99573.63;6078343;23;20092;-74
2023/10/26 10:10:36;;;;;;;9.75;5.20;;;;;;;10.28;100.00;99576.00;6074039;23;20121;-75
2023/10/26 10:13:02;;;;;;;9.88;5.60;;;;;;;10.31;100.00;99579.97;6076448;23;20453;-76
2023/10/26 10:15:39;;;;;;;11.93;5.47;;;;;;;10.30;100.00;99579.19;6102289;23;20460;-73
2023/10/26 10:18:08;;;;;;;7.57;5.10;;;;;;;10.31;100.00;99586.13;6078252;23;20037;-74
2023/10/26 10:20:37;;;;;;;7.93;5.10;;;;;;;10.33;100.00;99583.13;6077733;23;20022;-75
2023/10/26 10:23:04;;;;;;;6.70;4.68;;;;;;;10.37;100.00;99590.28;6126429;23;20009;-74
2023/10/26 10:25:48;;;;;;;6.60;4.07;;;;;;;10.39;100.00;99592.66;6126795;23;20019;-74
2023/10/26 10:28:14;;;;;;;6.22;3.65;;;;;;;10.37;100.00;99589.50;6126857;23;20041;-73
2023/10/26 10:30:52;;;;;;;6.70;4.60;;;;;;;10.33;100.00;99581.25;6103350;23;20035;-76
2023/10/26 10:33:23;;;;;;;5.80;4.07;;;;;;;10.33;100.00;99581.25;6126944;23;20514;-72
2023/10/26 10:36:04;;;;;;;5.97;3.80;;;;;;;10.34;100.00;99584.72;6125842;23;20020;-74
2023/10/26 10:38:33;;;;;;;4.35;3.42;;;;;;;10.32;100.00;99589.59;6078692;23;20036;-73
2023/10/26 10:40:59;;;;;;;5.50;3.25;;;;;;;10.30;100.00;99587.22;6101442;23;20017;-73
2023/10/26 10:43:33;;;;;;;5.15;3.38;;;;;;;10.32;100.00;99582.34;6101207;23;20024;-73
2023/10/26 10:46:16;;;;;;;4.40;3.15;;;;;;;10.36;100.00;99583.34;6125726;23;20464;-73
2023/10/26 10:48:54;;;;;;;5.78;3.40;;;;;;;10.40;100.00;99588.91;6125801;23;20349;-73
2023/10/26 10:51:20;;;;;;;4.63;3.50;;;;;;;10.41;100.00;99579.78;6125686;23;20009;-73
2023/10/26 10:53:52;;;;;;;4.60;3.22;;;;;;;10.44;100.00;99578.41;6100993;23;20024;-74
2023/10/26 10:56:17;;;;;;;5.53;3.28;;;;;;;10.45;100.00;99585.34;6071049;23;20022;-73
2023/10/26 10:58:44;;;;;;;4.45;3.33;;;;;;;10.49;100.00;99580.97;6077635;23;20108;-74
2023/10/26 11:01:10;;;;;;;3.72;3.10;;;;;;;10.50;100.00;99583.38;6077904;23;20018;-77
2023/10/26 11:03:36;;;;;;;4.88;3.53;;;;;;;10.49;100.00;99576.41;6078488;23;20024;-77
2023/10/26 11:06:02;;;;;;;;;;;;;;;10.49;100.00;99581.75;6103174;23;20014;-74
2023/10/26 11:08:27;;;;;;;5.75;3.08;;;;;;;10.49;100.00;99576.41;6101918;23;19915;-73
2023/10/26 11:10:54;;;;;;;5.18;3.40;;;;;;;10.53;100.00;99577.41;6077044;23;20069;-75
2023/10/26 11:13:21;;;;;;;4.63;3.13;;;;;;;10.51;100.00;99574.25;6100207;23;20024;-73
2023/10/26 11:15:48;;;;;;;5.03;3.28;;;;;;;10.55;100.00;99569.84;6098656;23;20009;-73
2023/10/26 11:18:14;;;;;;;3.83;3.20;;;;;;;10.59;100.00;99575.44;6074391;23;20009;-73
2023/10/26 11:20:45;;;;;;;3.83;2.92;;;;;;;10.61;100.00;99576.69;6125795;23;20013;-76
2023/10/26 11:23:16;;;;;;;6.20;3.17;;;;;;;10.64;100.00;99567.31;6078536;23;20447;-76